aviador You're here:

CYYU Decoded Metar

KAPUSKASING in ON, CANADA
Report Time2017-09-24 06:32:00
UTC Time2017-09-24 06:51:08
Flight Rules ifr IFR
Wind240° at 03 kt
W.Decomp.*RWY 28: 2.6 kt HW 1.5 kt LCW
RWY 17: 0.5 kt HW 3.0 kt RCW
W.Rank240° ranks 1
Current wind is below 240° avg. (8.3)
Visibility3621 m
Phenomena:Mist
Clouds:Overcast 007 Hf
Ceiling700 ft
Temp19°C (ISA +5)
Dew Point19°C (100% RH)
QNH1016 hPa
Density Alt1,581 ft
Elevation745 ft
Report Wrong Elevation
Raw Report
SPECI CYYU 240632Z 24003KT 2 1/4SM BR OVC007 19/19 A3000 RMK FG3SC5
SLP161 DENSITY ALT 1300FT=

Extra information for CYYU:More info

Metar Taf Metar & Taf Last 4 Metars F.Rules Stats Wind Profile Meteogram Temp Stats Airport Information Weather charts Add Link Nearby VenuesMetar ALERT Operation Metar Decoded Social comments